Rankings de siempre
Mejores tiempos personales válidos de equipo a través de todos los eventos y temporadas. Cada equipo aparece una vez por división.
Busca por nombre y abre la página donde está clasificado este récord de división.
13,786 equipos clasificados
| Pos. | Pos. AG | Equipo | Nacionalidad | Categoría de edad | TiempoMejor tiempo | Diferencia |
|---|---|---|---|---|---|---|
| 10976 | #246 | Jill Rooney & Louise BissettGBR · W 50-54 · AG #246 | GBR | W 50-54 | 1:32:27 | +38:47 |
| 10977 | #3770 | Sabina SONIUS & Melissa NAUTANED · W 30-34 · AG #3770 | NED | W 30-34 | 1:32:27 | +38:47 |
| 10978 | #695 | Joëlle Didier & Clara AubrierFRA · W 16-24 · AG #695 | FRA | W 16-24 | 1:32:28 | +38:48 |
| 10979 | #1536 | Jennifer Roche & Florelle SansebastianFRA · W 35-39 · AG #1536 | FRA | W 35-39 | 1:32:28 | +38:48 |
| 10980 | -- | Alexandra Schütz & Kristina FrankeGER · W WU29 | GER | W WU29 | 1:32:28 | +38:48 |
| 10981 | #1858 | Chayma Houari & Ibtissam GuermatMAR · W 25-29 · AG #1858 | MAR | W 25-29 | 1:32:28 | +38:48 |
| 10982 | #1859 | Leilani Dixon & Siera AlaniNZL · W 25-29 · AG #1859 | NZL | W 25-29 | 1:32:29 | +38:49 |
| 10983 | #1657 | Morgane Bigot & Delphine AtinkpahounFRA · W 40-44 · AG #1657 | FRA | W 40-44 | 1:32:29 | +38:49 |
| 10984 | #3771 | Keilyn Escobar & Diana Contró SalazarW 30-34 · AG #3771 | -- | W 30-34 | 1:32:29 | +38:49 |
| 10985 | #1658 | Dorothy Rajcich & Britt RajcichUSA · W 40-44 · AG #1658 | USA | W 40-44 | 1:32:29 | +38:49 |
| 10986 | #1860 | Brylee Huey & Evania GuglielmiAUS · W 25-29 · AG #1860 | AUS | W 25-29 | 1:32:29 | +38:49 |
| 10987 | #1659 | MARIE-MELANIE BESSE & PASCALINE MOREAUFRA · W 40-44 · AG #1659 | FRA | W 40-44 | 1:32:29 | +38:49 |
| 10988 | #3772 | Haley Newhall & Anna ZimmerUSA · W 30-34 · AG #3772 | USA | W 30-34 | 1:32:30 | +38:50 |
| 10989 | #1661 | Marika Destrini & Nicoletta ZaraITA · W 40-44 · AG #1661 | ITA | W 40-44 | 1:32:30 | +38:50 |
| 10990 | #1660 | Ira Rasyid Reid & Rina RengganisINA · W 40-44 · AG #1660 | INA | W 40-44 | 1:32:30 | +38:50 |
| 10991 | #3773 | Ashlea Rocha & Georgina CormodeW 30-34 · AG #3773 | -- | W 30-34 | 1:32:31 | +38:51 |
| 10992 | #696 | Salomé Faivre & Léna TastetFRA · W 16-24 · AG #696 | FRA | W 16-24 | 1:32:32 | +38:52 |
| 10993 | #3774 | Audrey Keogh & Aoife ShearerIRL · W 30-34 · AG #3774 | IRL | W 30-34 | 1:32:32 | +38:52 |
| 10994 | -- | Emma Szneider & Amélie JouglaFRA · W WU29 | FRA | W WU29 | 1:32:32 | +38:52 |
| 10995 | -- | Klara Wendel & Tilda PedersenSWE · W WU29 | SWE | W WU29 | 1:32:32 | +38:52 |
| 10996 | #3775 | Kelly Koh & Kaylee ChungSIN · W 30-34 · AG #3775 | SIN | W 30-34 | 1:32:32 | +38:52 |
| 10997 | #1662 | Hayley Synclaire & Emma RowleyGBR · W 40-44 · AG #1662 | GBR | W 40-44 | 1:32:32 | +38:52 |
| 10998 | #1861 | Daniela Quijano & Renee GarzaMEX · W 25-29 · AG #1861 | MEX | W 25-29 | 1:32:33 | +38:53 |
| 10999 | #697 | Sofia SARGSYAN & Léna PHANW 16-24 · AG #697 | -- | W 16-24 | 1:32:33 | +38:53 |
| 11000 | #1537 | Aurore Pourplanque & Stumpf Kelly JoFRA · W 35-39 · AG #1537 | FRA | W 35-39 | 1:32:34 | +38:54 |
Página 440 de 552